Time;durP1;ratioP1;P1;durP2;ratioP2;P2;SDS_P1;SDS_P2;PMS_P1;PMS_P2;Temp;Humidity;BMP_temperature;BMP_pressure;BME280_temperature;BME280_humidity;BME280_pressure;Samples;Min_cycle;Max_cycle;Signal;HPM_P1;HPM_P2
2023/05/28 00:01:53;;;;;;;1.87;1.87;;;20.70;69.20;;;;;;5088269;27;43374;-69
2023/05/28 00:04:24;;;;;;;1.60;1.60;;;20.70;69.50;;;;;;5086562;27;43584;-70
2023/05/28 00:06:55;;;;;;;1.50;1.50;;;20.70;69.40;;;;;;5087225;27;43867;-69
2023/05/28 00:09:23;;;;;;;1.60;1.60;;;20.80;69.10;;;;;;5084700;27;43417;-70
2023/05/28 00:11:51;;;;;;;1.70;1.70;;;21.00;68.70;;;;;;5087063;27;43371;-70
2023/05/28 00:14:19;;;;;;;1.40;1.40;;;21.10;68.30;;;;;;5087307;28;44800;-69
2023/05/28 00:16:47;;;;;;;1.60;1.60;;;21.10;68.00;;;;;;5087377;27;43786;-70
2023/05/28 00:19:15;;;;;;;1.70;1.70;;;21.10;68.20;;;;;;5087189;27;43441;-70
2023/05/28 00:21:45;;;;;;;1.70;1.70;;;21.00;68.10;;;;;;5087479;27;43456;-70
2023/05/28 00:24:13;;;;;;;1.80;1.80;;;21.00;68.50;;;;;;5087196;27;44378;-69
2023/05/28 00:26:41;;;;;;;1.40;1.40;;;20.90;68.80;;;;;;5086976;27;44268;-70
2023/05/28 00:29:09;;;;;;;1.57;1.57;;;20.80;69.00;;;;;;5087234;28;43470;-70
2023/05/28 00:31:37;;;;;;;1.50;1.50;;;20.80;69.10;;;;;;5084420;28;43466;-71
2023/05/28 00:34:05;;;;;;;1.80;1.80;;;20.80;69.00;;;;;;5085823;27;43677;-69
2023/05/28 00:36:33;;;;;;;1.70;1.70;;;20.80;69.10;;;;;;5084444;28;45361;-69
2023/05/28 00:39:04;;;;;;;1.50;1.50;;;20.80;70.10;;;;;;5085506;28;43434;-70
2023/05/28 00:41:35;;;;;;;1.70;1.70;;;20.70;69.30;;;;;;5086560;27;43847;-70
2023/05/28 00:44:03;;;;;;;1.60;1.60;;;20.70;69.30;;;;;;5084906;28;45518;-70
2023/05/28 00:46:32;;;;;;;1.70;1.60;;;20.70;69.30;;;;;;5086346;28;43386;-70
2023/05/28 00:49:01;;;;;;;1.70;1.70;;;20.70;69.20;;;;;;5085790;28;43374;-70
2023/05/28 00:51:29;;;;;;;1.53;1.53;;;20.70;69.50;;;;;;5085759;28;43948;-70
2023/05/28 00:53:57;;;;;;;1.70;1.70;;;20.70;69.60;;;;;;5085576;28;45381;-70
2023/05/28 00:56:27;;;;;;;1.63;1.63;;;20.80;69.30;;;;;;5100414;27;44837;-70
2023/05/28 00:58:57;;;;;;;1.50;1.50;;;20.90;68.70;;;;;;5085746;28;43554;-70
2023/05/28 01:01:26;;;;;;;1.53;1.53;;;21.10;68.40;;;;;;5086981;27;43408;-70
2023/05/28 01:03:54;;;;;;;1.50;1.50;;;21.10;68.10;;;;;;5079291;27;46000;-70
2023/05/28 01:06:22;;;;;;;1.30;1.30;;;21.10;68.30;;;;;;5085646;28;43574;-71
2023/05/28 01:08:51;;;;;;;1.30;1.30;;;21.00;68.20;;;;;;5086712;27;43367;-70
2023/05/28 01:11:19;;;;;;;1.70;1.70;;;21.00;68.50;;;;;;5086697;27;43655;-69
2023/05/28 01:13:49;;;;;;;1.60;1.60;;;20.90;68.90;;;;;;5085901;28;43868;-70
2023/05/28 01:16:17;;;;;;;1.57;1.57;;;20.80;69.00;;;;;;5084787;28;44817;-69
2023/05/28 01:18:47;;;;;;;1.40;1.40;;;20.80;69.10;;;;;;5084661;28;43514;-70
2023/05/28 01:21:16;;;;;;;1.43;1.43;;;20.80;69.10;;;;;;5085144;28;43609;-70
2023/05/28 01:23:49;;;;;;;1.50;1.50;;;20.80;69.10;;;;;;5084859;28;46039;-69
2023/05/28 01:26:17;;;;;;;1.73;1.73;;;20.70;69.40;;;;;;5085221;27;43464;-69
2023/05/28 01:28:45;;;;;;;1.40;1.40;;;20.80;69.50;;;;;;5084226;28;43887;-69
2023/05/28 01:31:13;;;;;;;1.67;1.67;;;20.70;69.40;;;;;;5090555;27;43407;-69
2023/05/28 01:33:42;;;;;;;1.57;1.57;;;20.70;69.30;;;;;;5085070;27;43856;-70
2023/05/28 01:36:12;;;;;;;1.60;1.60;;;20.70;69.30;;;;;;5083745;28;45087;-69
2023/05/28 01:38:40;;;;;;;1.60;1.60;;;20.70;69.70;;;;;;5085214;27;43718;-69
2023/05/28 01:41:10;;;;;;;1.83;1.80;;;20.70;69.40;;;;;;5082165;28;43736;-70
2023/05/28 01:43:38;;;;;;;1.60;1.60;;;20.90;69.00;;;;;;5084741;28;44603;-69
2023/05/28 01:46:06;;;;;;;1.40;1.40;;;21.00;68.50;;;;;;5084855;27;45934;-69
2023/05/28 01:48:35;;;;;;;1.67;1.67;;;21.10;68.30;;;;;;5088186;27;43457;-70
2023/05/28 01:51:03;;;;;;;1.50;1.50;;;21.10;68.40;;;;;;5088681;28;43513;-68
2023/05/28 01:53:31;;;;;;;2.00;1.90;;;21.00;68.40;;;;;;5087846;27;45663;-70
2023/05/28 01:56:01;;;;;;;1.60;1.60;;;21.00;68.60;;;;;;5087725;28;43897;-71
2023/05/28 01:58:31;;;;;;;1.20;1.20;;;20.90;68.80;;;;;;5087984;28;43411;-69
2023/05/28 02:01:03;;;;;;;1.70;1.70;;;20.80;69.10;;;;;;5088267;27;43514;-69
2023/05/28 02:03:31;;;;;;;1.57;1.57;;;20.80;69.10;;;;;;5084347;28;44750;-68
2023/05/28 02:05:59;;;;;;;1.60;1.60;;;20.80;69.20;;;;;;5088030;28;44894;-69
2023/05/28 02:08:27;;;;;;;1.80;1.80;;;20.80;69.10;;;;;;5092690;27;44504;-71
2023/05/28 02:10:55;;;;;;;1.67;1.67;;;20.70;69.20;;;;;;5088485;28;43979;-69
2023/05/28 02:13:23;;;;;;;1.80;1.70;;;20.70;69.50;;;;;;5081814;28;46038;-69
2023/05/28 02:15:53;;;;;;;1.50;1.50;;;20.70;69.50;;;;;;5088419;27;43575;-69
2023/05/28 02:18:21;;;;;;;1.70;1.70;;;20.70;69.50;;;;;;5088018;28;44116;-69
2023/05/28 02:20:51;;;;;;;1.70;1.70;;;20.70;69.40;;;;;;5086721;27;43663;-69
2023/05/28 02:23:19;;;;;;;1.57;1.57;;;20.60;69.50;;;;;;5088334;27;43607;-69
2023/05/28 02:25:48;;;;;;;1.80;1.70;;;20.70;69.70;;;;;;5088478;28;44039;-69
2023/05/28 02:28:16;;;;;;;1.60;1.60;;;20.80;69.30;;;;;;5087617;28;43458;-69
2023/05/28 02:30:44;;;;;;;1.60;1.60;;;20.90;68.90;;;;;;5089484;27;43459;-69
2023/05/28 02:33:13;;;;;;;1.50;1.50;;;21.00;68.40;;;;;;5088647;28;43590;-69
2023/05/28 02:35:41;;;;;;;1.23;1.23;;;21.10;68.30;;;;;;5087315;28;44912;-69
2023/05/28 02:38:09;;;;;;;1.50;1.50;;;21.10;68.30;;;;;;5084340;28;43482;-69
2023/05/28 02:40:38;;;;;;;1.70;1.70;;;21.00;68.40;;;;;;5085129;28;43565;-70
2023/05/28 02:43:06;;;;;;;1.70;1.70;;;21.00;68.60;;;;;;5087523;28;45976;-69
2023/05/28 02:45:34;;;;;;;1.47;1.47;;;20.90;68.90;;;;;;5085755;28;43722;-69
2023/05/28 02:48:02;;;;;;;1.70;1.70;;;20.80;69.10;;;;;;5086286;28;43437;-69
2023/05/28 02:50:32;;;;;;;1.50;1.50;;;20.80;69.10;;;;;;5085271;28;43920;-69
2023/05/28 02:53:33;;;;;;;1.50;1.50;;;20.80;69.10;;;;;;5086948;27;43720;-69
2023/05/28 02:56:01;;;;;;;1.57;1.57;;;20.80;69.10;;;;;;5089301;27;43377;-69
2023/05/28 02:58:30;;;;;;;1.50;1.50;;;20.70;69.30;;;;;;5085787;27;43944;-70
2023/05/28 03:00:58;;;;;;;1.30;1.30;;;20.70;69.40;;;;;;5082307;27;43497;-68
2023/05/28 03:03:27;;;;;;;1.57;1.57;;;20.70;69.40;;;;;;5087046;27;45385;-68
2023/05/28 03:05:57;;;;;;;1.60;1.60;;;20.70;69.30;;;;;;5086484;28;44063;-68
2023/05/28 03:08:26;;;;;;;1.60;1.60;;;20.70;69.30;;;;;;5083407;28;43491;-69
2023/05/28 03:10:54;;;;;;;2.10;1.67;;;20.60;69.60;;;;;;5087373;28;43719;-71
2023/05/28 03:13:22;;;;;;;1.60;1.60;;;20.70;69.50;;;;;;5085422;28;45642;-70
2023/05/28 03:15:50;;;;;;;2.03;1.93;;;20.80;69.10;;;;;;5086786;28;45153;-69
2023/05/28 03:18:19;;;;;;;2.20;2.00;;;20.90;68.50;;;;;;5086853;27;43456;-70
2023/05/28 03:20:47;;;;;;;2.17;2.07;;;21.00;68.20;;;;;;5087160;28;43549;-70
2023/05/28 03:23:17;;;;;;;2.30;2.13;;;21.00;68.20;;;;;;5086555;28;45577;-70
2023/05/28 03:26:07;;;;;;;2.10;2.00;;;21.00;68.40;;;;;;5085441;28;44859;-70
2023/05/28 03:28:35;;;;;;;3.97;2.67;;;21.00;68.50;;;;;;5086683;28;43481;-70
2023/05/28 03:31:29;;;;;;;3.87;2.87;;;20.90;68.70;;;;;;5083400;27;43585;-69
2023/05/28 03:33:59;;;;;;;4.47;3.00;;;20.80;69.10;;;;;;5086375;27;43892;-70
2023/05/28 03:36:27;;;;;;;4.30;3.17;;;20.80;69.10;;;;;;5086053;28;44738;-71
2023/05/28 03:38:56;;;;;;;2.77;2.57;;;20.80;69.10;;;;;;5086785;28;43467;-69
2023/05/28 03:41:26;;;;;;;5.33;3.63;;;20.80;69.10;;;;;;5087327;28;43546;-70
2023/05/28 03:43:54;;;;;;;6.17;3.90;;;20.70;69.30;;;;;;5086707;28;46017;-69
2023/05/28 03:46:22;;;;;;;5.97;3.47;;;20.70;69.50;;;;;;5086489;28;45313;-69
2023/05/28 03:48:50;;;;;;;3.80;3.40;;;20.70;69.50;;;;;;5087670;27;43878;-70
2023/05/28 03:51:19;;;;;;;4.07;3.33;;;20.70;69.30;;;;;;5086574;28;43617;-70
2023/05/28 03:53:47;;;;;;;6.00;3.87;;;20.70;69.20;;;;;;5088123;27;45753;-69
2023/05/28 03:56:16;;;;;;;4.43;3.40;;;20.60;69.40;;;;;;5086364;28;44804;-69
2023/05/28 03:58:44;;;;;;;4.90;3.73;;;20.60;69.60;;;;;;5083832;28;43987;-71
2023/05/28 04:01:12;;;;;;;5.80;4.00;;;20.70;69.40;;;;;;5086546;28;43478;-70
2023/05/28 04:03:41;;;;;;;6.93;3.70;;;20.80;69.00;;;;;;5085583;28;45990;-70
2023/05/28 04:06:10;;;;;;;5.70;3.83;;;21.00;68.50;;;;;;5086843;27;43468;-70
2023/05/28 04:08:38;;;;;;;5.77;3.73;;;21.10;68.40;;;;;;5087188;27;43436;-69
2023/05/28 04:11:06;;;;;;;3.93;3.47;;;21.00;68.50;;;;;;5086756;27;43445;-70
2023/05/28 04:13:36;;;;;;;4.13;3.37;;;21.00;68.50;;;;;;5083869;28;45870;-70
2023/05/28 04:16:05;;;;;;;4.37;3.40;;;20.90;68.50;;;;;;5083859;28;43459;-69
2023/05/28 04:18:34;;;;;;;6.20;3.43;;;20.80;68.90;;;;;;5086579;27;43522;-71
2023/05/28 04:21:03;;;;;;;5.40;3.50;;;20.80;69.10;;;;;;5083043;28;43908;-70
2023/05/28 04:23:31;;;;;;;3.77;3.43;;;20.80;69.10;;;;;;5086300;27;43626;-71
2023/05/28 04:25:59;;;;;;;5.10;3.60;;;20.80;69.00;;;;;;5084696;28;45009;-70
2023/05/28 04:28:27;;;;;;;4.73;3.73;;;20.80;69.10;;;;;;5085884;27;43470;-71
2023/05/28 04:31:00;;;;;;;4.60;3.97;;;20.70;69.40;;;;;;5086450;27;43505;-70
2023/05/28 04:33:29;;;;;;;3.93;3.60;;;20.70;69.50;;;;;;5084648;28;44033;-70
2023/05/28 04:35:58;;;;;;;5.27;3.50;;;20.70;69.40;;;;;;5085561;28;44926;-71
2023/05/28 04:38:28;;;;;;;3.93;3.53;;;20.70;69.20;;;;;;5086151;28;43440;-70
2023/05/28 04:40:57;;;;;;;5.33;3.87;;;20.70;69.20;;;;;;5084924;28;43509;-70
2023/05/28 04:43:24;;;;;;;4.10;3.70;;;20.60;69.50;;;;;;5082709;28;45441;-69
2023/05/28 04:45:54;;;;;;;4.67;3.70;;;20.60;69.50;;;;;;5085639;28;44400;-71
2023/05/28 04:48:25;;;;;;;4.03;3.70;;;20.80;69.40;;;;;;5085459;27;43520;-70
2023/05/28 04:50:53;;;;;;;3.77;3.47;;;20.90;69.10;;;;;;5086094;27;43442;-69
2023/05/28 04:53:21;;;;;;;4.10;3.50;;;20.90;69.10;;;;;;5086969;27;43957;-70
2023/05/28 04:55:49;;;;;;;5.17;3.60;;;20.90;68.90;;;;;;5084232;28;43482;-70
2023/05/28 04:58:17;;;;;;;5.87;3.60;;;20.80;69.10;;;;;;5087354;27;43370;-69
2023/05/28 05:00:45;;;;;;;3.57;3.27;;;20.90;69.20;;;;;;5085910;28;43513;-69
2023/05/28 05:03:14;;;;;;;4.60;3.40;;;20.80;69.00;;;;;;5078510;28;46075;-71
2023/05/28 05:05:43;;;;;;;4.53;3.53;;;20.80;69.00;;;;;;5082904;28;44883;-70
2023/05/28 05:08:13;;;;;;;4.90;3.50;;;20.80;69.00;;;;;;5085781;27;43468;-69
2023/05/28 05:10:42;;;;;;;3.83;3.43;;;20.70;69.30;;;;;;5097511;27;43533;-69
2023/05/28 05:13:11;;;;;;;4.93;3.90;;;20.70;69.50;;;;;;5084227;27;43786;-71
2023/05/28 05:15:39;;;;;;;4.03;3.57;;;20.80;69.10;;;;;;5082067;28;44611;-70
2023/05/28 05:18:07;;;;;;;4.17;3.60;;;20.90;68.90;;;;;;5077396;28;43902;-70
2023/05/28 05:20:35;;;;;;;3.80;3.50;;;20.90;68.90;;;;;;5082482;27;43488;-70
2023/05/28 05:23:06;;;;;;;5.07;3.53;;;20.90;68.80;;;;;;5086430;28;44744;-70
2023/05/28 05:25:34;;;;;;;3.97;3.63;;;20.90;69.10;;;;;;5087325;27;43712;-70
2023/05/28 05:28:02;;;;;;;4.33;3.57;;;20.90;69.10;;;;;;5089064;28;44383;-70
2023/05/28 05:30:32;;;;;;;4.27;3.60;;;20.80;69.10;;;;;;5088398;28;43580;-70
2023/05/28 05:33:00;;;;;;;4.00;3.47;;;20.80;68.90;;;;;;5102439;27;45889;-69
2023/05/28 05:35:32;;;;;;;4.47;3.77;;;20.80;69.00;;;;;;5088400;28;43426;-69
2023/05/28 05:38:17;;;;;;;3.47;3.20;;;20.70;69.40;;;;;;5087819;28;43374;-69
2023/05/28 05:41:11;;;;;;;3.40;3.10;;;20.70;69.40;;;;;;5083210;28;43472;-69
2023/05/28 05:43:47;;;;;;;3.50;3.30;;;20.70;69.20;;;;;;5088582;28;46926;-69
2023/05/28 05:46:16;;;;;;;4.27;3.87;;;20.70;69.10;;;;;;5092438;27;43439;-68
2023/05/28 05:48:44;;;;;;;3.87;3.47;;;20.60;69.50;;;;;;5099023;27;43469;-69
2023/05/28 05:51:16;;;;;;;3.87;3.53;;;20.60;69.70;;;;;;5088415;28;43581;-69
2023/05/28 05:53:46;;;;;;;3.67;3.40;;;20.70;69.40;;;;;;5084813;28;45424;-70
2023/05/28 05:56:15;;;;;;;4.03;3.70;;;20.80;69.10;;;;;;5087607;27;44438;-68
2023/05/28 05:58:43;;;;;;;3.93;3.53;;;20.90;69.10;;;;;;5087783;28;43442;-69
2023/05/28 06:01:17;;;;;;;3.77;3.47;;;20.90;69.00;;;;;;5088317;27;44033;-69
2023/05/28 06:03:45;;;;;;;3.73;3.43;;;20.80;69.10;;;;;;5089556;27;43681;-69
2023/05/28 06:06:31;;;;;;;3.20;3.00;;;20.80;69.10;;;;;;5085209;28;43421;-69
2023/05/28 06:09:17;;;;;;;3.53;3.33;;;20.80;69.10;;;;;;5088182;27;43518;-70
2023/05/28 06:11:48;;;;;;;3.90;3.50;;;20.80;69.10;;;;;;5088326;28;44054;-70
2023/05/28 06:14:17;;;;;;;4.67;3.63;;;20.70;68.90;;;;;;5086844;28;45757;-69
2023/05/28 06:16:45;;;;;;;3.50;3.20;;;20.70;69.50;;;;;;5089470;27;43410;-70
2023/05/28 06:19:14;;;;;;;3.63;3.37;;;20.70;69.60;;;;;;5082962;28;43496;-70
2023/05/28 06:21:42;;;;;;;3.93;3.60;;;20.70;69.50;;;;;;5087340;28;43534;-70
2023/05/28 06:24:10;;;;;;;3.43;3.07;;;20.60;69.30;;;;;;5084699;28;45545;-69
2023/05/28 06:26:41;;;;;;;3.50;3.20;;;20.60;69.20;;;;;;5087432;27;43511;-70
2023/05/28 06:29:09;;;;;;;3.67;3.37;;;20.60;69.70;;;;;;5088023;28;43438;-69
2023/05/28 06:31:37;;;;;;;3.73;3.43;;;20.60;69.80;;;;;;5087977;27;44006;-69
2023/05/28 06:34:06;;;;;;;3.27;3.07;;;20.60;69.70;;;;;;5086574;27;46024;-69
2023/05/28 06:36:35;;;;;;;3.37;3.10;;;20.60;69.50;;;;;;5085617;27;43483;-69
2023/05/28 06:39:05;;;;;;;3.77;3.47;;;20.60;69.50;;;;;;5089225;28;43913;-69
2023/05/28 06:41:34;;;;;;;4.43;3.60;;;20.60;69.90;;;;;;5087345;27;43581;-69
2023/05/28 06:44:05;;;;;;;3.43;3.23;;;20.60;69.90;;;;;;5086186;28;45855;-70
2023/05/28 06:47:05;;;;;;;3.50;3.30;;;20.70;69.50;;;;;;5083856;28;43596;-69
2023/05/28 06:49:34;;;;;;;3.73;3.43;;;20.90;68.90;;;;;;5087564;27;43387;-69
2023/05/28 06:52:02;;;;;;;3.57;3.27;;;21.00;68.70;;;;;;5082009;28;43442;-69
2023/05/28 06:54:30;;;;;;;3.43;3.23;;;21.00;68.60;;;;;;5087154;28;43832;-69
2023/05/28 06:56:59;;;;;;;3.30;3.10;;;21.00;68.70;;;;;;5087214;28;44037;-70
2023/05/28 06:59:57;;;;;;;3.70;3.40;;;20.90;68.60;;;;;;5083349;28;43512;-68
2023/05/28 07:02:54;;;;;;;3.63;3.43;;;20.80;69.40;;;;;;5084431;27;43394;-69
2023/05/28 07:05:38;;;;;;;3.70;3.50;;;20.80;69.30;;;;;;5086105;28;45816;-70
2023/05/28 07:08:06;;;;;;;3.97;3.57;;;20.70;69.30;;;;;;5086163;28;44603;-70
2023/05/28 07:10:35;;;;;;;3.80;3.37;;;20.70;69.30;;;;;;5087445;28;43449;-69
2023/05/28 07:13:04;;;;;;;3.00;2.80;;;20.70;69.10;;;;;;5086754;28;43971;-69
2023/05/28 07:15:35;;;;;;;3.20;3.00;;;20.60;69.10;;;;;;5086547;28;44029;-68
2023/05/28 07:18:07;;;;;;;3.43;3.13;;;20.60;69.60;;;;;;5085125;27;44822;-70
2023/05/28 07:20:35;;;;;;;3.70;3.40;;;20.60;69.70;;;;;;5097179;27;43515;-69
2023/05/28 07:23:21;;;;;;;3.27;3.07;;;20.60;69.60;;;;;;5085113;28;43478;-69
2023/05/28 07:25:50;;;;;;;3.17;2.97;;;20.60;69.50;;;;;;5086361;27;44049;-69
2023/05/28 07:28:19;;;;;;;3.83;3.53;;;20.60;69.50;;;;;;5086249;28;44860;-69
2023/05/28 07:30:49;;;;;;;3.47;3.17;;;20.50;69.80;;;;;;5085045;28;43582;-69
2023/05/28 07:33:17;;;;;;;3.27;3.07;;;20.60;69.90;;;;;;5087688;28;44124;-69
2023/05/28 07:35:46;;;;;;;3.60;3.30;;;20.60;69.50;;;;;;5086388;28;45755;-69
2023/05/28 07:38:15;;;;;;;3.30;3.10;;;20.80;69.10;;;;;;5085801;27;45141;-70
2023/05/28 07:40:47;;;;;;;3.20;3.00;;;21.00;68.60;;;;;;5086504;27;43536;-70
2023/05/28 07:43:23;;;;;;;2.83;2.73;;;21.00;68.50;;;;;;5099099;27;43500;-70
2023/05/28 07:45:56;;;;;;;3.40;3.20;;;21.00;68.60;;;;;;5086536;27;44028;-69
2023/05/28 07:48:29;;;;;;;3.13;2.93;;;20.90;68.50;;;;;;5086192;28;43987;-70
2023/05/28 07:51:10;;;;;;;3.13;3.03;;;20.80;68.60;;;;;;5088103;27;43471;-70
2023/05/28 07:53:43;;;;;;;3.20;3.00;;;20.70;69.10;;;;;;5086564;28;43666;-70
2023/05/28 07:56:15;;;;;;;2.67;2.57;;;20.70;69.30;;;;;;5084178;28;44033;-70
2023/05/28 07:58:45;;;;;;;3.20;3.00;;;20.70;69.30;;;;;;5086807;27;44706;-71
2023/05/28 08:01:16;;;;;;;3.20;3.00;;;20.70;69.10;;;;;;5085763;27;43477;-70
2023/05/28 08:03:48;;;;;;;3.50;3.30;;;20.60;69.20;;;;;;5084645;28;43651;-69
2023/05/28 08:06:17;;;;;;;3.20;3.00;;;20.60;69.80;;;;;;5086412;28;45445;-68
2023/05/28 08:08:45;;;;;;;3.00;2.90;;;20.60;69.70;;;;;;5083908;28;45027;-69
2023/05/28 08:11:14;;;;;;;3.77;3.50;;;20.60;69.50;;;;;;5080272;27;43555;-69
2023/05/28 08:13:42;;;;;;;2.93;2.83;;;20.60;69.50;;;;;;5087861;27;43493;-69
2023/05/28 08:16:11;;;;;;;3.07;2.93;;;20.60;69.70;;;;;;5085882;28;45817;-69
2023/05/28 08:19:10;;;;;;;3.07;2.77;;;20.60;70.00;;;;;;5086906;27;43473;-69
2023/05/28 08:21:39;;;;;;;3.10;2.90;;;20.60;69.60;;;;;;5084196;28;43568;-69
2023/05/28 08:24:09;;;;;;;3.43;3.13;;;20.80;69.10;;;;;;5082281;28;43460;-69
2023/05/28 08:26:37;;;;;;;2.93;2.80;;;20.90;68.80;;;;;;5088142;27;45597;-69
2023/05/28 08:29:06;;;;;;;3.17;2.97;;;21.00;68.80;;;;;;5083163;28;44905;-69
2023/05/28 08:31:39;;;;;;;2.87;2.73;;;20.90;68.70;;;;;;5083483;27;43452;-69
2023/05/28 08:34:23;;;;;;;2.80;2.70;;;20.80;68.60;;;;;;5086121;27;43771;-69
2023/05/28 08:36:53;;;;;;;3.10;2.90;;;20.80;68.80;;;;;;5085837;28;45062;-68
2023/05/28 08:39:28;;;;;;;3.00;2.90;;;20.70;69.30;;;;;;5085111;28;43418;-70
2023/05/28 08:41:57;;;;;;;3.00;2.90;;;20.70;69.50;;;;;;5084711;28;43466;-70
2023/05/28 08:44:25;;;;;;;2.90;2.80;;;20.70;69.50;;;;;;5080910;28;43514;-70
2023/05/28 08:46:54;;;;;;;3.10;2.90;;;20.60;69.30;;;;;;5082842;28;46199;-71
2023/05/28 08:49:39;;;;;;;3.43;3.13;;;20.60;69.40;;;;;;5082802;28;43737;-70
2023/05/28 08:52:09;;;;;;;3.50;3.20;;;20.60;69.60;;;;;;5086083;28;44019;-70
2023/05/28 08:54:38;;;;;;;3.50;3.20;;;20.60;68.40;;;;;;5086125;28;43395;-70
2023/05/28 08:57:07;;;;;;;3.67;3.40;;;20.70;67.30;;;;;;5084431;28;44850;-69
2023/05/28 08:59:45;;;;;;;3.27;3.07;;;20.80;67.10;;;;;;5081756;28;43909;-70
2023/05/28 09:02:13;;;;;;;3.20;3.07;;;20.80;68.10;;;;;;5083628;28;43398;-70
2023/05/28 09:04:46;;;;;;;2.97;2.87;;;20.70;68.30;;;;;;5085034;28;43604;-69
2023/05/28 09:07:15;;;;;;;4.23;3.30;;;20.70;68.00;;;;;;5085968;28;45511;-70
2023/05/28 09:09:56;;;;;;;3.70;3.40;;;20.70;67.50;;;;;;5084503;27;44000;-70
2023/05/28 09:12:28;;;;;;;3.83;3.50;;;20.70;68.00;;;;;;5082009;28;44619;-71
2023/05/28 09:15:02;;;;;;;3.57;3.27;;;20.60;67.90;;;;;;5083527;28;43587;-70
2023/05/28 09:17:33;;;;;;;3.00;2.90;;;20.60;68.00;;;;;;5080663;28;45425;-70
2023/05/28 09:20:12;;;;;;;3.77;3.47;;;20.50;68.50;;;;;;5085711;28;43407;-70
2023/05/28 09:22:41;;;;;;;3.00;2.90;;;20.60;68.80;;;;;;5081557;28;43521;-70
2023/05/28 09:25:22;;;;;;;3.00;2.80;;;20.60;68.50;;;;;;5084250;28;43461;-70
2023/05/28 09:27:57;;;;;;;3.50;3.30;;;20.60;68.50;;;;;;5079583;28;45358;-71
2023/05/28 09:30:26;;;;;;;3.00;2.90;;;20.50;68.50;;;;;;5076440;27;44736;-70
2023/05/28 09:32:58;;;;;;;3.17;2.97;;;20.50;69.20;;;;;;5086177;28;43965;-69
2023/05/28 09:35:29;;;;;;;3.00;2.90;;;20.60;69.30;;;;;;5087091;27;43893;-70
2023/05/28 09:38:03;;;;;;;3.50;3.30;;;20.70;69.10;;;;;;5083674;27;43602;-70
2023/05/28 09:40:31;;;;;;;3.37;3.20;;;20.80;68.70;;;;;;5085219;27;43510;-69
2023/05/28 09:43:00;;;;;;;3.07;2.87;;;20.90;68.60;;;;;;5084102;27;43524;-70
2023/05/28 09:45:28;;;;;;;3.17;2.97;;;20.80;68.30;;;;;;5086257;28;43360;-70
2023/05/28 09:47:56;;;;;;;3.10;3.00;;;20.80;68.10;;;;;;5086445;27;43803;-69
2023/05/28 09:50:24;;;;;;;2.97;2.80;;;20.80;68.00;;;;;;5085921;28;43461;-70
2023/05/28 09:52:56;;;;;;;3.50;3.30;;;20.70;68.20;;;;;;5086364;27;43631;-69
2023/05/28 09:55:25;;;;;;;3.23;3.00;;;20.70;69.00;;;;;;5086965;28;43510;-70
2023/05/28 09:57:59;;;;;;;3.20;3.10;;;20.70;69.00;;;;;;5083012;28;43660;-70
2023/05/28 10:00:29;;;;;;;2.80;2.70;;;20.60;68.50;;;;;;5082409;28;45301;-69
2023/05/28 10:03:05;;;;;;;3.30;3.10;;;20.60;68.50;;;;;;5084029;28;43481;-71
2023/05/28 10:05:33;;;;;;;3.10;3.00;;;20.60;68.80;;;;;;5084806;27;43565;-71
2023/05/28 10:08:03;;;;;;;3.47;3.33;;;20.60;69.10;;;;;;5087732;27;43570;-70
2023/05/28 10:10:31;;;;;;;3.20;3.00;;;20.60;68.90;;;;;;5084720;28;44721;-70
2023/05/28 10:12:59;;;;;;;3.03;2.90;;;20.60;68.70;;;;;;5088322;27;43514;-70
2023/05/28 10:15:27;;;;;;;3.27;2.97;;;20.60;68.70;;;;;;5088683;28;43455;-70
2023/05/28 10:17:55;;;;;;;3.33;3.13;;;20.50;68.80;;;;;;5087964;28;43641;-70
2023/05/28 10:20:23;;;;;;;2.70;2.60;;;20.50;69.10;;;;;;5089522;27;43400;-71
2023/05/28 10:22:51;;;;;;;3.00;2.90;;;20.60;69.30;;;;;;5086228;27;43441;-70
2023/05/28 10:25:20;;;;;;;3.20;3.00;;;20.70;68.90;;;;;;5086326;27;43340;-70
2023/05/28 10:27:49;;;;;;;3.07;2.97;;;20.80;68.50;;;;;;5094451;27;43748;-69
2023/05/28 10:30:32;;;;;;;2.80;2.70;;;20.90;68.40;;;;;;5089131;27;43439;-69
2023/05/28 10:33:00;;;;;;;3.40;3.20;;;20.90;68.30;;;;;;5087948;28;43425;-70
2023/05/28 10:35:29;;;;;;;3.10;3.00;;;20.90;68.00;;;;;;5089465;27;43422;-71
2023/05/28 10:38:04;;;;;;;2.90;2.80;;;20.80;67.90;;;;;;5089704;27;43606;-72
2023/05/28 10:40:35;;;;;;;2.87;2.77;;;20.80;68.30;;;;;;5088475;28;43521;-70
2023/05/28 10:43:03;;;;;;;2.90;2.80;;;20.70;69.00;;;;;;5088253;28;43720;-70
2023/05/28 10:45:37;;;;;;;3.00;2.90;;;20.70;68.80;;;;;;5087730;28;43566;-70
2023/05/28 10:48:06;;;;;;;3.07;2.87;;;20.70;68.50;;;;;;5090364;27;45489;-70
2023/05/28 10:50:56;;;;;;;3.17;2.97;;;20.60;68.50;;;;;;5077937;28;43669;-70
2023/05/28 10:53:25;;;;;;;2.50;2.40;;;20.60;68.90;;;;;;5088935;28;43490;-70
2023/05/28 10:55:54;;;;;;;3.10;3.00;;;20.60;69.20;;;;;;5086056;27;43436;-69
2023/05/28 10:58:24;;;;;;;2.63;2.53;;;20.60;69.00;;;;;;5079171;27;45612;-71
2023/05/28 11:00:52;;;;;;;2.53;2.43;;;20.60;68.90;;;;;;5101573;27;45202;-71
2023/05/28 11:03:38;;;;;;;2.63;2.53;;;20.60;68.90;;;;;;5086144;27;44493;-70
2023/05/28 11:06:08;;;;;;;2.80;2.60;;;20.60;69.00;;;;;;5086168;28;43546;-69
2023/05/28 11:08:43;;;;;;;2.63;2.43;;;20.60;69.30;;;;;;5089572;27;45666;-70
2023/05/28 11:11:13;;;;;;;2.60;2.50;;;20.70;69.20;;;;;;5100425;27;44939;-70
2023/05/28 11:13:44;;;;;;;2.73;2.63;;;20.80;68.90;;;;;;5088180;27;43303;-69
2023/05/28 11:16:13;;;;;;;2.60;2.50;;;20.90;68.50;;;;;;5088049;27;43804;-68
2023/05/28 11:18:41;;;;;;;2.80;2.70;;;20.90;68.30;;;;;;5087262;27;43901;-69
2023/05/28 11:21:09;;;;;;;3.10;2.90;;;20.90;68.10;;;;;;5087333;27;43422;-71
2023/05/28 11:23:37;;;;;;;2.83;2.73;;;20.90;67.90;;;;;;5089738;27;43638;-70
2023/05/28 11:26:06;;;;;;;2.80;2.70;;;20.80;67.90;;;;;;5087055;28;43530;-70
2023/05/28 11:28:50;;;;;;;2.77;2.67;;;20.80;68.50;;;;;;5088289;27;44041;-70
2023/05/28 11:31:18;;;;;;;2.73;2.63;;;20.70;68.70;;;;;;5082185;27;43522;-70
2023/05/28 11:33:49;;;;;;;2.73;2.63;;;20.70;68.30;;;;;;5086208;28;44108;-70
2023/05/28 11:36:19;;;;;;;2.93;2.77;;;20.70;68.10;;;;;;5087717;27;43517;-69
2023/05/28 11:38:47;;;;;;;2.97;2.77;;;20.70;68.20;;;;;;5083947;28;43590;-69
2023/05/28 11:41:15;;;;;;;2.93;2.83;;;20.60;68.30;;;;;;5082360;27;44832;-68
2023/05/28 11:43:43;;;;;;;3.30;3.10;;;20.60;68.40;;;;;;5093625;27;43953;-69
2023/05/28 11:46:13;;;;;;;3.53;3.33;;;20.70;68.20;;;;;;5083246;28;43538;-69
2023/05/28 11:48:41;;;;;;;3.53;3.33;;;20.80;68.10;;;;;;5084928;27;43614;-69
2023/05/28 11:51:10;;;;;;;5.13;3.23;;;20.80;67.90;;;;;;5085842;28;43487;-69
2023/05/28 11:53:41;;;;;;;3.57;3.37;;;20.80;67.50;;;;;;5088131;27;43459;-69
2023/05/28 11:56:09;;;;;;;3.70;3.50;;;20.70;67.60;;;;;;5088022;28;43380;-69
2023/05/28 11:58:40;;;;;;;3.60;3.40;;;20.70;67.50;;;;;;5081054;27;43622;-69
2023/05/28 12:01:08;;;;;;;4.07;3.70;;;20.70;66.90;;;;;;5079791;27;43966;-71
2023/05/28 12:03:37;;;;;;;4.00;3.77;;;20.70;67.30;;;;;;5083375;27;43402;-69
2023/05/28 12:06:05;;;;;;;4.33;3.90;;;20.70;67.00;;;;;;5082037;28;43459;-69
2023/05/28 12:08:33;;;;;;;4.33;4.00;;;20.60;67.90;;;;;;5074643;28;45484;-69
2023/05/28 12:11:02;;;;;;;5.00;4.50;;;20.70;67.90;;;;;;5079266;28;45107;-69
2023/05/28 12:13:34;;;;;;;4.80;4.50;;;20.70;67.60;;;;;;5084804;27;43506;-69
2023/05/28 12:16:09;;;;;;;6.17;4.93;;;20.60;67.40;;;;;;5086056;27;44036;-69
2023/05/28 12:18:42;;;;;;;6.83;5.37;;;20.60;67.50;;;;;;5065572;27;43928;-69
2023/05/28 12:21:11;;;;;;;6.27;5.17;;;20.60;67.90;;;;;;5077194;27;44151;-69
2023/05/28 12:23:39;;;;;;;6.33;4.83;;;20.60;68.00;;;;;;5087252;27;43455;-69
2023/05/28 12:26:10;;;;;;;6.37;5.40;;;20.80;67.50;;;;;;5085858;27;43937;-69
2023/05/28 12:28:40;;;;;;;6.87;5.70;;;20.90;67.20;;;;;;5085451;27;45568;-69
2023/05/28 12:31:08;;;;;;;12.73;5.57;;;20.90;68.10;;;;;;5086803;27;43432;-69
2023/05/28 12:33:37;;;;;;;22.47;6.53;;;20.90;67.20;;;;;;5083736;27;43468;-70
2023/05/28 12:36:06;;;;;;;14.80;6.20;;;20.90;67.60;;;;;;5092852;27;44124;-70
2023/05/28 12:38:34;;;;;;;24.53;7.50;;;20.90;66.90;;;;;;5093362;27;43653;-70
2023/05/28 12:41:04;;;;;;;27.83;6.73;;;20.80;67.00;;;;;;5090644;27;43455;-70
2023/05/28 12:43:32;;;;;;;26.50;7.23;;;20.80;67.80;;;;;;5089500;27;44544;-71
2023/05/28 12:46:00;;;;;;;27.03;7.40;;;20.80;67.80;;;;;;5089530;27;43382;-70
2023/05/28 12:48:28;;;;;;;27.63;7.67;;;20.70;67.30;;;;;;5088308;27;43894;-70
2023/05/28 12:50:56;;;;;;;29.50;7.90;;;20.70;67.20;;;;;;5086967;27;46291;-70
2023/05/28 12:53:26;;;;;;;31.83;8.13;;;20.70;67.30;;;;;;5088608;27;44002;-69
2023/05/28 12:55:54;;;;;;;32.63;8.30;;;20.70;68.00;;;;;;5091020;27;43517;-69
2023/05/28 12:58:23;;;;;;;24.53;7.83;;;20.70;67.90;;;;;;5092757;27;43914;-69
2023/05/28 13:00:51;;;;;;;30.13;7.70;;;20.70;67.60;;;;;;5095213;27;43951;-69
2023/05/28 13:03:20;;;;;;;27.00;7.63;;;20.70;67.50;;;;;;5093338;27;43426;-69